createdAt,value
2023-04-08T00:01:53.637Z,35.65
2023-04-08T00:04:22.659Z,34.53
2023-04-08T00:06:50.360Z,34.28
2023-04-08T00:09:17.828Z,36.05
2023-04-08T00:11:45.296Z,36.60
2023-04-08T00:14:12.800Z,39.17
2023-04-08T00:16:40.330Z,37.00
2023-04-08T00:19:07.847Z,39.60
2023-04-08T00:21:36.642Z,37.33
2023-04-08T00:24:04.366Z,35.80
2023-04-08T00:26:31.917Z,33.08
2023-04-08T00:28:59.430Z,83.00
2023-04-08T00:31:27.134Z,274.60
2023-04-08T00:33:54.691Z,245.65
2023-04-08T00:36:22.498Z,96.07
2023-04-08T00:38:51.695Z,166.20
2023-04-08T00:41:19.567Z,74.95
2023-04-08T00:43:47.077Z,36.60
2023-04-08T00:46:14.616Z,41.55
2023-04-08T00:48:42.106Z,52.47
2023-04-08T00:51:09.667Z,44.67
2023-04-08T00:53:37.544Z,61.72
2023-04-08T00:56:06.576Z,32.35
2023-04-08T00:58:34.069Z,27.77
2023-04-08T01:01:06.595Z,29.70
2023-04-08T01:03:46.735Z,34.33
2023-04-08T01:06:20.366Z,39.05
2023-04-08T01:08:50.790Z,29.88
2023-04-08T01:11:21.348Z,40.20
2023-04-08T01:13:51.687Z,30.17
2023-04-08T01:16:20.494Z,48.53
2023-04-08T01:18:50.946Z,50.10
2023-04-08T01:21:20.990Z,67.57
2023-04-08T01:24:00.090Z,109.55
2023-04-08T01:26:29.667Z,122.85
2023-04-08T01:29:00.266Z,131.35
2023-04-08T01:31:28.463Z,137.52
2023-04-08T01:33:57.252Z,129.07
2023-04-08T01:36:26.602Z,72.18
2023-04-08T01:38:54.362Z,51.08
2023-04-08T01:41:22.395Z,90.93
2023-04-08T01:43:52.830Z,99.00
2023-04-08T01:46:21.575Z,85.95
2023-04-08T01:48:50.180Z,138.10
2023-04-08T01:51:18.618Z,78.95
2023-04-08T01:53:46.106Z,100.22
2023-04-08T01:56:15.273Z,128.10
2023-04-08T01:58:47.418Z,69.85
2023-04-08T02:01:19.744Z,58.63
2023-04-08T02:03:48.378Z,89.35
2023-04-08T02:06:15.917Z,77.80
2023-04-08T02:08:43.363Z,58.83
2023-04-08T02:11:11.068Z,87.35
2023-04-08T02:13:38.502Z,100.63
2023-04-08T02:16:11.882Z,122.10
2023-04-08T02:18:46.269Z,119.05
2023-04-08T02:21:16.489Z,113.10
2023-04-08T02:23:49.456Z,45.47
2023-04-08T02:26:18.948Z,47.55
2023-04-08T02:28:50.441Z,32.15
2023-04-08T02:31:19.951Z,37.60
2023-04-08T02:33:52.255Z,33.65
2023-04-08T02:36:20.546Z,37.38
2023-04-08T02:38:49.450Z,33.55
2023-04-08T02:41:17.542Z,35.85
2023-04-08T02:43:45.915Z,28.33
2023-04-08T02:46:13.686Z,42.88
2023-04-08T02:48:41.253Z,34.40
2023-04-08T02:51:10.273Z,44.65
2023-04-08T02:53:37.756Z,69.78
2023-04-08T02:56:05.565Z,78.90
2023-04-08T02:58:33.736Z,69.32
2023-04-08T03:01:01.311Z,78.65
2023-04-08T03:03:30.074Z,39.55
2023-04-08T03:05:58.302Z,30.98
2023-04-08T03:08:27.303Z,47.53
2023-04-08T03:10:54.790Z,54.15
2023-04-08T03:13:22.270Z,57.03
2023-04-08T03:15:49.762Z,83.38
2023-04-08T03:18:17.695Z,78.43
2023-04-08T03:20:45.189Z,59.30
2023-04-08T03:23:12.682Z,53.05
2023-04-08T03:25:41.476Z,60.83
2023-04-08T03:28:08.944Z,30.75
2023-04-08T03:30:36.491Z,55.05
2023-04-08T03:33:07.816Z,44.63
2023-04-08T03:35:35.534Z,48.42
2023-04-08T03:38:03.053Z,73.25
2023-04-08T03:40:30.701Z,57.13
2023-04-08T03:42:59.508Z,23.92
2023-04-08T03:45:26.964Z,37.60
2023-04-08T03:47:55.020Z,49.08
2023-04-08T03:50:22.647Z,30.40
2023-04-08T03:52:50.165Z,42.67
2023-04-08T03:55:17.836Z,22.63
2023-04-08T03:57:45.355Z,19.20
2023-04-08T04:00:15.782Z,22.95
2023-04-08T04:02:43.389Z,14.38
2023-04-08T04:05:11.880Z,22.50
2023-04-08T04:07:39.359Z,51.25
2023-04-08T04:10:07.755Z,30.88
2023-04-08T04:12:35.432Z,39.25
2023-04-08T04:15:02.886Z,41.83
2023-04-08T04:17:31.721Z,46.45
2023-04-08T04:19:59.202Z,41.40
2023-04-08T04:22:27.155Z,45.38
2023-04-08T04:24:54.594Z,66.32
2023-04-08T04:27:22.067Z,30.90
2023-04-08T04:29:49.516Z,63.70
2023-04-08T04:32:16.986Z,49.67
2023-04-08T04:34:45.855Z,34.63
2023-04-08T04:37:13.629Z,53.17
2023-04-08T04:39:41.104Z,78.43
2023-04-08T04:42:08.577Z,34.67
2023-04-08T04:44:36.300Z,56.45
2023-04-08T04:47:04.052Z,91.32
2023-04-08T04:49:31.513Z,84.85
2023-04-08T04:52:00.400Z,57.50
2023-04-08T04:54:27.922Z,38.42
2023-04-08T04:56:55.503Z,50.00
2023-04-08T04:59:22.979Z,38.33
2023-04-08T05:01:50.517Z,36.90
2023-04-08T05:04:18.124Z,70.28
2023-04-08T05:06:45.644Z,54.20
2023-04-08T05:09:14.487Z,51.13
2023-04-08T05:11:42.022Z,35.25
2023-04-08T05:14:09.576Z,50.65
2023-04-08T05:16:37.175Z,28.45
2023-04-08T05:19:04.736Z,26.75
2023-04-08T05:21:32.575Z,32.95
2023-04-08T05:24:00.271Z,49.42
2023-04-08T05:26:29.085Z,39.08
2023-04-08T05:28:56.574Z,34.40
2023-04-08T05:31:24.110Z,25.10
2023-04-08T05:33:51.630Z,19.88
2023-04-08T05:36:19.087Z,28.77
2023-04-08T05:38:46.540Z,19.15
2023-04-08T05:41:14.056Z,26.83
2023-04-08T05:43:42.886Z,33.60
2023-04-08T05:46:11.281Z,55.60
2023-04-08T05:48:38.830Z,27.83
2023-04-08T05:51:06.353Z,47.22
2023-04-08T05:53:33.854Z,41.95
2023-04-08T05:56:01.357Z,77.28
2023-04-08T05:58:28.809Z,34.85
2023-04-08T06:00:57.640Z,25.88
2023-04-08T06:03:25.449Z,31.83
2023-04-08T06:05:53.034Z,54.10
2023-04-08T06:08:21.056Z,69.57
2023-04-08T06:10:51.693Z,37.03
2023-04-08T06:13:20.941Z,54.88
2023-04-08T06:15:49.698Z,51.42
2023-04-08T06:18:18.742Z,61.28
2023-04-08T06:20:46.423Z,38.47
2023-04-08T06:23:13.901Z,47.60
2023-04-08T06:25:41.968Z,27.35
2023-04-08T06:28:09.476Z,40.72
2023-04-08T06:30:36.935Z,86.57
2023-04-08T06:33:04.491Z,41.90
2023-04-08T06:35:33.383Z,38.67
2023-04-08T06:38:00.858Z,53.00
2023-04-08T06:40:28.384Z,46.78
2023-04-08T06:42:55.867Z,74.28
2023-04-08T06:45:23.647Z,41.08
2023-04-08T06:47:51.189Z,42.45
2023-04-08T06:50:18.674Z,56.55
2023-04-08T06:52:47.446Z,65.57
2023-04-08T06:55:14.876Z,43.42
2023-04-08T06:57:42.427Z,33.03
2023-04-08T07:00:11.523Z,30.52
2023-04-08T07:02:39.011Z,58.95
2023-04-08T07:05:07.755Z,39.70
2023-04-08T07:07:35.355Z,126.65
2023-04-08T07:10:04.319Z,61.22
2023-04-08T07:12:31.773Z,34.70
2023-04-08T07:14:59.218Z,34.85
2023-04-08T07:17:26.637Z,36.10
2023-04-08T07:19:54.093Z,44.28
2023-04-08T07:22:21.512Z,29.00
2023-04-08T07:24:49.744Z,72.05
2023-04-08T07:27:18.856Z,90.07
2023-04-08T07:29:47.812Z,37.97
2023-04-08T07:32:16.196Z,58.80
2023-04-08T07:34:43.721Z,40.75
2023-04-08T07:37:11.171Z,71.45
2023-04-08T07:39:38.638Z,32.95
2023-04-08T07:42:06.132Z,45.95
2023-04-08T07:44:34.925Z,45.45
2023-04-08T07:47:02.419Z,55.97
2023-04-08T07:49:29.863Z,57.78
2023-04-08T07:51:57.471Z,48.63
2023-04-08T07:54:24.951Z,45.88
2023-04-08T07:56:52.394Z,44.78
2023-04-08T07:59:19.898Z,44.53
2023-04-08T08:01:48.775Z,39.67
2023-04-08T08:04:16.332Z,43.90
2023-04-08T08:06:43.800Z,47.97
2023-04-08T08:09:11.242Z,49.15
2023-04-08T08:11:38.788Z,50.80
2023-04-08T08:14:06.268Z,56.00
2023-04-08T08:16:33.782Z,55.78
2023-04-08T08:19:04.365Z,55.33
2023-04-08T08:21:31.823Z,59.90
2023-04-08T08:23:59.578Z,57.30
2023-04-08T08:26:27.267Z,60.13
2023-04-08T08:28:54.683Z,56.47
2023-04-08T08:31:22.122Z,60.03
2023-04-08T08:33:49.836Z,54.53
2023-04-08T08:36:18.923Z,49.72
2023-04-08T08:38:46.420Z,54.08
2023-04-08T08:41:13.874Z,46.97
2023-04-08T08:43:41.329Z,46.40
2023-04-08T08:46:11.857Z,44.97
2023-04-08T08:48:40.667Z,43.88
2023-04-08T08:51:09.868Z,39.40
2023-04-08T08:53:38.921Z,36.40
2023-04-08T08:58:40.350Z,36.63
2023-04-08T09:01:33.986Z,40.72
2023-04-08T09:04:09.915Z,38.38
2023-04-08T09:06:37.686Z,36.38
2023-04-08T09:09:10.276Z,33.60
2023-04-08T09:11:39.755Z,31.95
2023-04-08T09:14:17.989Z,36.42
2023-04-08T09:16:45.744Z,33.40
2023-04-08T09:19:13.486Z,35.90
2023-04-08T09:21:41.595Z,37.20
2023-04-08T09:24:11.260Z,30.35
2023-04-08T09:26:38.949Z,30.38
2023-04-08T09:29:22.332Z,26.55
2023-04-08T09:31:55.859Z,29.83
2023-04-08T09:34:24.290Z,25.65
2023-04-08T09:36:52.525Z,28.77
2023-04-08T09:39:21.673Z,23.60
2023-04-08T09:41:50.911Z,26.95
2023-04-08T09:44:20.618Z,26.40
2023-04-08T09:46:57.569Z,25.67
2023-04-08T09:49:28.467Z,22.38
2023-04-08T09:52:02.229Z,19.88
2023-04-08T09:54:42.934Z,22.70
2023-04-08T09:57:14.461Z,24.80
2023-04-08T09:59:49.833Z,28.08
2023-04-08T10:02:24.276Z,28.42
2023-04-08T10:04:54.538Z,21.35
2023-04-08T10:07:22.979Z,23.92
2023-04-08T10:09:52.443Z,19.58
2023-04-08T10:12:20.338Z,18.52
2023-04-08T10:15:23.084Z,19.33
2023-04-08T10:17:50.988Z,22.65
2023-04-08T10:20:43.225Z,19.17
2023-04-08T10:23:13.207Z,21.63
2023-04-08T10:25:43.365Z,26.50
2023-04-08T10:28:31.892Z,19.20
2023-04-08T10:30:59.441Z,19.55
2023-04-08T10:33:34.511Z,19.08
2023-04-08T10:36:11.213Z,42.05
2023-04-08T10:38:38.912Z,25.23
2023-04-08T10:41:08.276Z,18.55
2023-04-08T10:43:36.602Z,17.30
2023-04-08T10:46:04.811Z,17.55
2023-04-08T10:48:32.597Z,16.85
2023-04-08T10:51:01.587Z,15.40
2023-04-08T10:53:30.332Z,16.52
2023-04-08T10:56:06.081Z,19.58
2023-04-08T10:58:35.399Z,20.27
2023-04-08T11:01:07.321Z,17.25
2023-04-08T11:03:35.869Z,15.40
2023-04-08T11:06:04.010Z,16.15
2023-04-08T11:08:32.257Z,19.80
2023-04-08T11:11:01.180Z,19.05
2023-04-08T11:13:29.281Z,15.55
2023-04-08T11:16:00.515Z,20.83
2023-04-08T11:18:28.495Z,17.40
2023-04-08T11:20:57.678Z,14.63
2023-04-08T11:25:32.610Z,16.55
2023-04-08T11:28:01.178Z,16.33
2023-04-08T11:30:30.861Z,14.73
2023-04-08T11:32:58.783Z,16.05
2023-04-08T11:35:30.415Z,20.52
2023-04-08T11:37:58.277Z,16.83
2023-04-08T11:40:27.314Z,19.10
2023-04-08T11:42:56.304Z,20.67
2023-04-08T11:45:24.021Z,21.17
2023-04-08T11:47:51.779Z,23.77
2023-04-08T11:50:29.820Z,21.10
2023-04-08T11:52:57.367Z,26.83
2023-04-08T11:55:27.400Z,20.08
2023-04-08T11:57:57.523Z,18.75
2023-04-08T12:00:25.977Z,19.70
2023-04-08T12:02:53.657Z,20.30
2023-04-08T12:05:21.425Z,17.65
2023-04-08T12:07:49.086Z,20.10
2023-04-08T12:10:16.530Z,20.48
2023-04-08T12:12:44.077Z,32.72
2023-04-08T12:15:13.021Z,31.05
2023-04-08T12:17:40.574Z,26.05
2023-04-08T12:20:08.877Z,27.20
2023-04-08T12:22:36.541Z,34.55
2023-04-08T12:25:04.532Z,31.77
2023-04-08T12:27:33.350Z,29.23
2023-04-08T12:30:01.168Z,32.30
2023-04-08T12:32:30.176Z,29.63
2023-04-08T12:34:57.711Z,37.15
2023-04-08T12:37:25.170Z,31.50
2023-04-08T12:39:52.758Z,40.17
2023-04-08T12:42:20.250Z,36.05
2023-04-08T12:44:47.729Z,32.53
2023-04-08T12:47:15.492Z,42.42
2023-04-08T12:49:49.396Z,74.80
2023-04-08T12:52:18.610Z,40.03
2023-04-08T12:54:46.189Z,33.42
2023-04-08T12:57:13.659Z,30.90
2023-04-08T12:59:41.144Z,91.40
2023-04-08T13:02:08.714Z,42.08
2023-04-08T13:04:36.318Z,43.88
2023-04-08T13:07:05.246Z,43.33
2023-04-08T13:09:32.695Z,112.85
2023-04-08T13:12:00.520Z,52.55
2023-04-08T13:14:28.623Z,45.60
2023-04-08T13:16:56.173Z,44.33
2023-04-08T13:19:23.776Z,21.83
2023-04-08T13:21:51.273Z,43.90
2023-04-08T13:24:20.038Z,33.60
2023-04-08T13:26:47.866Z,26.08
2023-04-08T13:29:15.328Z,25.17
2023-04-08T13:31:42.801Z,22.15
2023-04-08T13:34:10.305Z,17.23
2023-04-08T13:36:37.753Z,14.45
2023-04-08T13:39:05.243Z,18.67
2023-04-08T13:41:34.872Z,20.40
2023-04-08T13:44:02.331Z,18.30
2023-04-08T13:46:29.847Z,21.25
2023-04-08T13:48:57.330Z,24.65
2023-04-08T13:51:24.784Z,25.95
2023-04-08T13:53:52.274Z,24.92
2023-04-08T13:56:19.853Z,22.80
2023-04-08T13:58:56.422Z,22.65
2023-04-08T14:01:24.222Z,20.92
2023-04-08T14:03:51.692Z,21.13
2023-04-08T14:06:19.183Z,19.73
2023-04-08T14:08:46.592Z,21.92
2023-04-08T14:11:14.072Z,21.17
2023-04-08T14:13:41.515Z,15.60
2023-04-08T14:16:10.341Z,21.25
2023-04-08T14:18:38.380Z,18.35
2023-04-08T14:21:07.240Z,15.65
2023-04-08T14:23:34.687Z,16.77
2023-04-08T14:40:43.475Z,34.80
2023-04-08T14:43:10.946Z,22.27
2023-04-08T14:45:38.407Z,22.95
2023-04-08T14:48:06.438Z,19.38
2023-04-08T14:50:34.005Z,22.85
2023-04-08T14:53:02.039Z,19.75
2023-04-08T14:55:29.969Z,15.65
2023-04-08T14:58:00.960Z,17.20
2023-04-08T15:00:28.706Z,15.70
2023-04-08T15:02:56.450Z,20.85
2023-04-08T15:05:23.974Z,18.75
2023-04-08T15:07:51.595Z,25.02
2023-04-08T15:10:19.150Z,30.10
2023-04-08T15:12:46.686Z,19.55
2023-04-08T15:15:15.598Z,17.92
2023-04-08T15:17:43.443Z,19.90
2023-04-08T15:20:11.903Z,15.07
2023-04-08T15:22:39.406Z,17.77
2023-04-08T15:25:07.674Z,18.40
2023-04-08T15:27:36.058Z,17.88
2023-04-08T15:30:03.706Z,24.52
2023-04-08T15:32:32.873Z,19.88
2023-04-08T15:35:00.601Z,18.48
2023-04-08T15:37:28.385Z,24.98
2023-04-08T15:39:56.162Z,18.75
2023-04-08T15:42:23.948Z,22.95
2023-04-08T15:44:51.427Z,24.17
2023-04-08T15:47:18.934Z,24.67
2023-04-08T15:49:48.657Z,17.98
2023-04-08T15:52:16.741Z,20.52
2023-04-08T15:54:44.187Z,16.02
2023-04-08T15:57:11.723Z,14.43
2023-04-08T15:59:39.167Z,18.63
2023-04-08T16:02:07.298Z,15.93
2023-04-08T16:04:35.319Z,16.48
2023-04-08T16:07:04.193Z,17.48
2023-04-08T16:09:32.038Z,16.17
2023-04-08T16:11:59.822Z,37.00
2023-04-08T16:14:27.677Z,18.67
2023-04-08T16:16:55.293Z,18.50
2023-04-08T16:19:22.748Z,19.67
2023-04-08T16:21:50.279Z,19.85
2023-04-08T16:24:20.686Z,28.30
2023-04-08T16:26:48.361Z,37.38
2023-04-08T16:29:16.067Z,27.42
2023-04-08T16:31:43.539Z,16.52
2023-04-08T16:34:11.160Z,56.97
2023-04-08T16:36:38.823Z,16.30
2023-04-08T16:39:06.462Z,17.90
2023-04-08T16:41:35.236Z,18.70
2023-04-08T16:44:02.671Z,18.08
2023-04-08T16:46:30.157Z,17.55
2023-04-08T16:48:57.631Z,16.98
2023-04-08T16:51:25.308Z,26.33
2023-04-08T16:53:53.210Z,18.25
2023-04-08T16:56:21.735Z,17.13
2023-04-08T16:58:50.558Z,41.15
2023-04-08T17:01:18.170Z,41.28
2023-04-08T17:03:47.588Z,28.73
2023-04-08T17:06:15.266Z,22.90
2023-04-08T17:08:43.575Z,21.25
2023-04-08T17:11:13.128Z,19.83
2023-04-08T17:13:41.839Z,26.48
2023-04-08T17:16:14.560Z,26.15
2023-04-08T17:18:42.134Z,19.45
2023-04-08T17:21:09.745Z,34.20
2023-04-08T17:23:37.370Z,25.83
2023-04-08T17:26:07.262Z,33.35
2023-04-08T17:28:34.924Z,32.28
2023-04-08T17:31:02.702Z,21.30
2023-04-08T17:33:32.067Z,35.88
2023-04-08T17:35:59.573Z,25.30
2023-04-08T17:38:27.294Z,20.98
2023-04-08T17:40:54.737Z,23.25
2023-04-08T17:43:22.180Z,21.92
2023-04-08T17:45:50.058Z,31.45
2023-04-08T17:48:17.751Z,20.50
2023-04-08T17:50:46.586Z,23.38
2023-04-08T17:53:14.042Z,24.13
2023-04-08T17:55:41.490Z,21.10
2023-04-08T17:58:08.954Z,26.42
2023-04-08T18:00:36.449Z,23.23
2023-04-08T18:03:04.071Z,22.95
2023-04-08T18:05:31.847Z,23.50
2023-04-08T18:08:00.605Z,26.20
2023-04-08T18:10:28.690Z,21.20
2023-04-08T18:13:07.899Z,24.40
2023-04-08T18:15:39.210Z,26.70
2023-04-08T18:18:06.638Z,25.10
2023-04-08T18:20:36.415Z,32.55
2023-04-08T18:23:05.337Z,32.33
2023-04-08T18:25:34.340Z,30.38
2023-04-08T18:28:01.872Z,29.67
2023-04-08T18:30:30.021Z,29.55
2023-04-08T18:32:57.597Z,32.88
2023-04-08T18:35:25.286Z,30.38
2023-04-08T18:37:52.747Z,30.55
2023-04-08T18:40:22.396Z,30.42
2023-04-08T18:42:49.890Z,31.00
2023-04-08T18:45:17.401Z,30.92
2023-04-08T18:47:44.918Z,27.83
2023-04-08T18:50:12.411Z,41.38
2023-04-08T18:52:39.935Z,36.33
2023-04-08T18:55:07.525Z,29.08
2023-04-08T18:57:36.334Z,29.77
2023-04-08T19:00:03.956Z,44.72
2023-04-08T19:02:31.667Z,36.10
2023-04-08T19:04:59.332Z,31.88
2023-04-08T19:07:27.319Z,29.40
2023-04-08T19:09:57.557Z,40.95
2023-04-08T19:12:25.988Z,55.47
2023-04-08T19:14:55.343Z,42.38
2023-04-08T19:17:22.902Z,35.03
2023-04-08T19:19:50.313Z,38.38
2023-04-08T19:22:17.745Z,33.00
2023-04-08T19:24:45.176Z,36.10
2023-04-08T19:27:13.873Z,38.47
2023-04-08T19:29:41.328Z,52.05
2023-04-08T19:32:10.109Z,38.22
2023-04-08T19:34:38.496Z,39.58
2023-04-08T19:37:05.975Z,38.00
2023-04-08T19:39:33.511Z,51.22
2023-04-08T19:42:01.054Z,47.63
2023-04-08T19:44:28.517Z,35.97
2023-04-08T19:46:57.535Z,61.60
2023-04-08T19:49:27.124Z,36.42
2023-04-08T19:51:55.690Z,63.28
2023-04-08T19:54:23.128Z,37.83
2023-04-08T19:56:50.884Z,35.00
2023-04-08T19:59:19.127Z,35.17
2023-04-08T20:01:46.601Z,28.73
2023-04-08T20:04:14.255Z,34.63
2023-04-08T20:06:43.086Z,46.10
2023-04-08T20:09:10.579Z,37.80
2023-04-08T20:11:38.022Z,40.47
2023-04-08T20:14:05.495Z,54.92
2023-04-08T20:16:32.941Z,45.35
2023-04-08T20:19:00.647Z,44.35
2023-04-08T20:21:28.149Z,32.22
2023-04-08T20:23:57.601Z,36.13
2023-04-08T20:26:25.095Z,29.35
2023-04-08T20:28:52.868Z,31.58
2023-04-08T20:31:20.997Z,32.03
2023-04-08T20:33:50.639Z,36.22
2023-04-08T20:36:18.187Z,33.65
2023-04-08T20:38:45.768Z,70.68
2023-04-08T20:41:18.954Z,44.53
2023-04-08T20:43:46.489Z,41.95
2023-04-08T20:46:13.993Z,35.10
2023-04-08T20:48:41.886Z,32.00
2023-04-08T20:51:09.525Z,39.47
2023-04-08T20:53:37.140Z,33.53
2023-04-08T20:56:04.943Z,48.53
2023-04-08T20:58:33.906Z,40.22
2023-04-08T21:01:01.440Z,36.22
2023-04-08T21:03:29.228Z,35.85
2023-04-08T21:05:57.447Z,51.08
2023-04-08T21:08:25.064Z,88.53
2023-04-08T21:10:54.045Z,42.17
2023-04-08T21:13:21.640Z,51.25
2023-04-08T21:15:50.520Z,37.53
2023-04-08T21:18:18.008Z,38.38
2023-04-08T21:20:45.476Z,36.83
2023-04-08T21:23:14.057Z,46.55
2023-04-08T21:25:41.545Z,33.85
2023-04-08T21:28:09.041Z,35.17
2023-04-08T21:30:36.886Z,32.13
2023-04-08T21:33:05.795Z,34.20
2023-04-08T21:35:33.421Z,32.38
2023-04-08T21:38:01.218Z,33.28
2023-04-08T21:40:32.958Z,39.05
2023-04-08T21:43:00.466Z,35.88
2023-04-08T21:45:28.015Z,35.08
2023-04-08T21:47:55.589Z,34.30
2023-04-08T21:50:24.473Z,36.00
2023-04-08T21:52:51.933Z,31.75
2023-04-08T21:55:19.381Z,37.78
2023-04-08T21:57:47.140Z,33.35
2023-04-08T22:00:15.212Z,33.35
2023-04-08T22:02:43.695Z,35.75
2023-04-08T22:05:12.550Z,38.42
2023-04-08T22:07:41.583Z,33.25
2023-04-08T22:10:09.805Z,35.97
2023-04-08T22:12:37.318Z,34.47
2023-04-08T22:15:05.767Z,36.35
2023-04-08T22:17:36.353Z,32.80
2023-04-08T22:20:04.098Z,35.83
2023-04-08T22:22:31.543Z,34.38
2023-04-08T22:25:00.357Z,37.85
2023-04-08T22:27:28.816Z,37.15
2023-04-08T22:29:56.249Z,39.70
2023-04-08T22:32:23.720Z,37.25
2023-04-08T22:34:51.162Z,34.53
2023-04-08T22:37:18.662Z,39.83
2023-04-08T22:39:46.110Z,36.67
2023-04-08T22:42:14.908Z,38.42
2023-04-08T22:44:42.421Z,39.15
2023-04-08T22:47:09.845Z,39.78
2023-04-08T22:49:37.298Z,43.08
2023-04-08T22:52:07.248Z,41.03
2023-04-08T22:54:34.680Z,41.58
2023-04-08T22:57:02.818Z,40.42
2023-04-08T22:59:31.578Z,42.97
2023-04-08T23:01:59.115Z,39.22
2023-04-08T23:04:26.621Z,39.53
2023-04-08T23:06:54.178Z,43.67
2023-04-08T23:09:23.566Z,45.35
2023-04-08T23:11:51.116Z,41.58
2023-04-08T23:14:18.601Z,43.10
2023-04-08T23:16:47.703Z,41.72
2023-04-08T23:19:15.372Z,39.83
2023-04-08T23:21:42.837Z,42.40
2023-04-08T23:24:10.593Z,39.65
2023-04-08T23:26:38.034Z,43.40
2023-04-08T23:29:05.511Z,44.90
2023-04-08T23:31:33.011Z,41.85
2023-04-08T23:34:01.848Z,36.95
2023-04-08T23:36:29.284Z,38.03
2023-04-08T23:38:56.739Z,44.10
2023-04-08T23:41:24.166Z,42.97
2023-04-08T23:43:52.529Z,43.05
2023-04-08T23:46:20.025Z,43.17
2023-04-08T23:48:47.576Z,40.25
2023-04-08T23:51:16.414Z,44.03
2023-04-08T23:53:43.838Z,37.60
2023-04-08T23:56:11.292Z,42.08
2023-04-08T23:58:38.712Z,39.40
